This is the latest recevied weather packets stored in our database for station/object YN7ZFC-13. If no packets are shown the sender has not sent any weather packets the latest 1 day(s).
| Time | Temp. | Humidity | Pressure | Rain* | Wind** | Luminosity | Snow |
|---|---|---|---|---|---|---|---|
| 1778044526 | 28.89° C | 66% | 1012 hPa | 0 mm | - | - | - |
| 1778043925 | 28.89° C | 66% | 1012 hPa | 0 mm | - | - | - |
| 1778043325 | 28.89° C | 66% | 1012 hPa | 0 mm | - | - | - |
| 1778042124 | 28.89° C | 66% | 1012 hPa | 0 mm | - | - | - |
| 1778040323 | 28.89° C | 66% | 1012 hPa | 0 mm | - | - | - |
| 1778039723 | 28.89° C | 66% | 1012 hPa | 0 mm | - | - | - |
| 1778038522 | 28.89° C | 64% | 1012 hPa | 0 mm | - | - | - |
| 1778037321 | 30° C | 62% | 1011 hPa | 0 mm | - | - | - |
| 1778036121 | 30° C | 62% | 1011 hPa | 0 mm | - | - | - |
| 1778034920 | 30° C | 61% | 1011 hPa | 0 mm | - | - | - |
| 1778034320 | 30° C | 60% | 1010 hPa | 0 mm | - | - | - |
| 1778033720 | 30.56° C | 57% | 1010 hPa | 0 mm | - | - | - |
| 1778033119 | 31.11° C | 54% | 1010 hPa | 0 mm | - | - | - |
| 1778032519 | 31.11° C | 54% | 1010 hPa | 0 mm | - | - | - |
| 1778031919 | 31.11° C | 53% | 1010 hPa | 0 mm | - | - | - |
| 1778031318 | 31.11° C | 52% | 1010 hPa | 0 mm | - | - | - |
| 1778030718 | 31.11° C | 51% | 1010 hPa | 0 mm | - | - | - |
| 1778028917 | 31.11° C | 47% | 1010 hPa | 0 mm | - | - | - |
| 1778025915 | 31.67° C | 46% | 1009 hPa | 0 mm | - | - | - |
| 1778019312 | 32.78° C | 38% | 1008 hPa | 0 mm | - | - | - |
| 1778015710 | 32.78° C | 38% | 1008 hPa | 0 mm | - | - | - |
| 1778014509 | 32.78° C | 39% | 1008 hPa | 0 mm | - | - | - |
| 1778011508 | 32.78° C | 43% | 1009 hPa | 0 mm | - | - | - |
| 1778009104 | 32.78° C | 43% | 1010 hPa | 0 mm | - | - | - |
| 1778004301 | 31.67° C | 49% | 1011 hPa | 0 mm | - | - | - |
* Rain latest hour (hover to see other rain measurements)
** Current wind speed in m/s (hover to see current wind gust speed)